Terminal Aerodrome Forecast
Issued by NWS

Home | Current Version | Previous Version | Text Only | Print | Product List | Glossary On
Versions: 1 2 3 4 5 6 7 8 9 10 11 12 13 14 15 16 17 18 19 20 21 22
000
FTUS43 KICT 282321
TAFCNU
TAF
KCNU 282321Z 2900/2924 18019G25KT P6SM FEW060 FEW150
     FM291000 19013KT P6SM FEW080 FEW250 WS020/20040KT
     FM291100 19014KT P6SM FEW080 SCT250=

USA.gov is the U.S. government's official web portal to all federal, state and local government web resources and services.